Time;durP1;ratioP1;P1;durP2;ratioP2;P2;SDS_P1;SDS_P2;PMS_P1;PMS_P2;Temp;Humidity;BMP_temperature;BMP_pressure;BME280_temperature;BME280_humidity;BME280_pressure;Samples;Min_cycle;Max_cycle;Signal;HPM_P1;HPM_P2
2022/03/25 00:01:27;;;;;;;93.45;54.22;;;;;;;9.51;39.43;103077.25;5095264;28;20046;-73
2022/03/25 00:03:53;;;;;;;102.38;52.85;;;;;;;9.79;39.61;103075.25;5094069;28;20114;-72
2022/03/25 00:06:18;;;;;;;98.63;55.38;;;;;;;9.23;40.50;103082.75;5091531;28;20631;-73
2022/03/25 00:08:44;;;;;;;98.95;54.20;;;;;;;9.42;40.60;103070.34;5094325;28;20032;-73
2022/03/25 00:11:10;;;;;;;92.97;52.03;;;;;;;9.50;39.88;103078.31;5093046;28;20488;-73
2022/03/25 00:13:35;;;;;;;91.47;52.28;;;;;;;10.05;38.56;103069.91;5091727;28;20433;-74
2022/03/25 00:16:03;;;;;;;110.82;55.67;;;;;;;10.20;38.41;103064.25;5091951;28;20217;-73
2022/03/25 00:18:29;;;;;;;94.32;55.55;;;;;;;9.71;39.93;103065.44;5092067;28;20040;-74
2022/03/25 00:20:54;;;;;;;95.18;54.58;;;;;;;9.86;39.64;103062.56;5091625;28;20124;-74
2022/03/25 00:23:20;;;;;;;101.20;53.97;;;;;;;9.96;38.83;103068.41;5091648;28;20086;-73
2022/03/25 00:25:45;;;;;;;102.60;57.30;;;;;;;9.71;39.59;103062.75;5092226;28;20036;-73
2022/03/25 00:28:11;;;;;;;99.55;54.97;;;;;;;10.01;39.07;103075.94;5091624;28;20092;-73
2022/03/25 00:30:36;;;;;;;109.13;56.30;;;;;;;9.85;39.78;103071.72;5091976;28;20032;-71
2022/03/25 00:33:02;;;;;;;97.55;55.63;;;;;;;9.72;40.17;103069.00;5091835;28;20038;-73
2022/03/25 00:35:27;;;;;;;98.20;56.03;;;;;;;9.63;39.70;103070.22;5092560;28;20070;-72
2022/03/25 00:37:53;;;;;;;102.20;56.97;;;;;;;9.64;39.69;103071.91;5091553;28;20047;-73
2022/03/25 00:40:18;;;;;;;100.13;56.38;;;;;;;9.38;40.48;103069.06;5091102;28;20420;-73
2022/03/25 00:42:43;;;;;;;94.82;55.15;;;;;;;9.44;40.33;103069.13;5091906;28;20115;-73
2022/03/25 00:45:10;;;;;;;111.05;58.40;;;;;;;9.24;41.25;103079.00;5091617;28;20485;-74
2022/03/25 00:47:36;;;;;;;106.25;58.20;;;;;;;9.36;40.59;103073.84;5091782;28;20140;-71
2022/03/25 00:50:02;;;;;;;100.88;57.13;;;;;;;9.31;40.92;103069.03;5091585;28;20016;-73
2022/03/25 00:52:28;;;;;;;110.88;59.38;;;;;;;9.66;40.64;103067.09;5091200;28;20036;-73
2022/03/25 00:54:53;;;;;;;102.38;58.10;;;;;;;9.83;39.99;103060.25;5091409;28;20412;-73
2022/03/25 00:57:19;;;;;;;102.07;57.88;;;;;;;9.91;38.93;103061.94;5089791;28;20075;-73
2022/03/25 00:59:45;;;;;;;104.55;58.08;;;;;;;9.68;40.18;103062.31;5091347;28;20032;-74
2022/03/25 01:02:10;;;;;;;101.57;57.35;;;;;;;8.58;42.95;103069.66;5091981;28;20047;-72
2022/03/25 01:04:36;;;;;;;109.65;61.08;;;;;;;8.80;42.13;103071.25;5090877;28;20040;-73
2022/03/25 01:07:02;;;;;;;102.97;59.70;;;;;;;8.78;41.89;103070.63;5091001;28;20111;-73
2022/03/25 01:09:27;;;;;;;105.30;58.47;;;;;;;8.87;42.54;103074.84;5089904;28;20409;-75
2022/03/25 01:11:53;;;;;;;104.88;58.88;;;;;;;8.97;42.17;103071.78;5090974;28;20044;-73
2022/03/25 01:14:19;;;;;;;102.25;56.78;;;;;;;9.27;41.71;103078.59;5091302;28;20032;-73
2022/03/25 01:16:44;;;;;;;108.32;59.88;;;;;;;8.90;41.99;103070.91;5090705;28;20511;-73
2022/03/25 01:19:11;;;;;;;113.00;60.50;;;;;;;8.38;43.94;103071.38;5091193;28;20123;-74
2022/03/25 01:21:36;;;;;;;120.82;64.65;;;;;;;8.57;43.70;103067.13;5090493;28;20115;-72
2022/03/25 01:24:04;;;;;;;108.40;59.53;;;;;;;9.03;42.01;103072.84;5089893;28;20489;-73
2022/03/25 01:26:30;;;;;;;111.03;59.72;;;;;;;9.12;42.39;103072.47;5091157;28;20035;-73
2022/03/25 01:28:55;;;;;;;106.60;58.38;;;;;;;9.20;42.19;103072.31;5090633;28;20060;-73
2022/03/25 01:31:21;;;;;;;102.13;57.38;;;;;;;9.35;41.48;103078.41;5090235;28;20036;-72
2022/03/25 01:33:46;;;;;;;115.47;61.60;;;;;;;9.35;41.58;103075.72;5090897;28;20036;-74
2022/03/25 01:36:12;;;;;;;101.53;59.05;;;;;;;9.14;41.40;103069.56;5090290;28;20032;-73
2022/03/25 01:38:38;;;;;;;113.78;60.17;;;;;;;9.13;42.04;103073.31;5090586;28;20446;-73
2022/03/25 01:41:04;;;;;;;104.53;60.40;;;;;;;9.21;41.76;103070.44;5090746;28;20036;-73
2022/03/25 01:43:30;;;;;;;113.53;59.58;;;;;;;8.90;41.91;103077.16;5090180;28;20081;-73
2022/03/25 01:45:55;;;;;;;109.80;59.17;;;;;;;9.02;41.64;103069.31;5090677;28;20508;-72
2022/03/25 01:48:21;;;;;;;113.63;60.10;;;;;;;8.32;43.69;103071.31;5090565;28;20047;-73
2022/03/25 01:50:48;;;;;;;111.28;61.70;;;;;;;9.09;42.41;103074.75;5090447;28;20120;-73
2022/03/25 01:53:17;;;;;;;108.10;60.28;;;;;;;8.59;43.44;103071.31;5090579;28;20032;-72
2022/03/25 01:55:49;;;;;;;104.38;62.22;;;;;;;9.05;42.25;103066.22;5090414;28;20409;-75
2022/03/25 01:58:14;;;;;;;116.22;62.65;;;;;;;9.20;41.78;103058.78;5090285;28;20421;-73
2022/03/25 02:00:40;;;;;;;112.93;60.15;;;;;;;8.75;42.88;103068.31;5090289;28;20044;-73
2022/03/25 02:03:05;;;;;;;106.95;59.17;;;;;;;8.47;43.74;103070.19;5090722;28;20035;-74
2022/03/25 02:05:31;;;;;;;125.28;63.15;;;;;;;9.05;42.27;103065.38;5090727;28;20135;-72
2022/03/25 02:07:56;;;;;;;116.35;61.90;;;;;;;8.70;43.44;103072.66;5089812;28;20028;-73
2022/03/25 02:10:22;;;;;;;113.78;61.63;;;;;;;8.07;45.17;103077.09;5090299;28;20047;-73
2022/03/25 02:12:48;;;;;;;108.55;60.83;;;;;;;8.73;43.67;103067.69;5089865;28;20051;-73
2022/03/25 02:15:13;;;;;;;111.85;63.15;;;;;;;8.17;44.87;103065.94;5090791;28;20036;-72
2022/03/25 02:17:39;;;;;;;111.50;60.95;;;;;;;7.84;45.15;103065.63;5090061;28;20043;-73
2022/03/25 02:20:08;;;;;;;116.15;62.53;;;;;;;8.26;44.39;103061.25;5090272;28;20190;-73
2022/03/25 02:22:36;;;;;;;114.35;62.22;;;;;;;8.57;43.75;103057.16;5088938;28;20036;-73
2022/03/25 02:25:06;;;;;;;113.70;61.30;;;;;;;8.49;43.76;103048.34;5089645;28;20059;-72
2022/03/25 02:27:34;;;;;;;113.65;60.53;;;;;;;8.68;43.61;103053.88;5089831;28;20104;-74
2022/03/25 02:29:59;;;;;;;118.95;62.50;;;;;;;8.27;44.55;103060.22;5089758;28;20044;-72
2022/03/25 02:32:24;;;;;;;116.43;63.70;;;;;;;8.43;43.45;103047.28;5090402;28;20100;-74
2022/03/25 02:34:50;;;;;;;119.32;65.43;;;;;;;8.41;44.06;103052.03;5089950;28;20114;-73
2022/03/25 02:37:15;;;;;;;120.78;64.55;;;;;;;8.23;44.14;103048.13;5089563;28;20128;-74
2022/03/25 02:39:41;;;;;;;116.55;62.85;;;;;;;8.22;44.25;103052.69;5089465;28;20119;-72
2022/03/25 02:42:07;;;;;;;122.50;63.40;;;;;;;8.48;44.02;103057.50;5089663;28;20028;-73
2022/03/25 02:44:32;;;;;;;122.35;66.00;;;;;;;8.26;44.35;103053.97;5090549;28;20036;-75
2022/03/25 02:46:57;;;;;;;130.55;65.40;;;;;;;8.10;44.87;103048.84;5089476;28;20032;-73
2022/03/25 02:49:23;;;;;;;119.43;63.22;;;;;;;8.20;44.97;103054.75;5089462;28;20495;-73
2022/03/25 02:51:48;;;;;;;122.68;65.28;;;;;;;8.23;44.71;103054.34;5089396;28;20032;-74
2022/03/25 02:54:13;;;;;;;133.10;65.43;;;;;;;8.31;44.26;103056.13;5088857;28;20119;-73
2022/03/25 02:56:39;;;;;;;114.97;62.08;;;;;;;7.94;44.96;103049.09;5089680;28;20067;-72
2022/03/25 02:59:04;;;;;;;126.43;64.22;;;;;;;8.49;43.87;103048.34;5090392;28;20032;-72
2022/03/25 03:01:30;;;;;;;115.40;64.05;;;;;;;8.59;43.42;103049.69;5087627;28;20036;-73
2022/03/25 03:03:55;;;;;;;118.32;60.70;;;;;;;7.27;47.30;103051.28;5089742;28;20043;-73
2022/03/25 03:06:20;;;;;;;121.20;62.85;;;;;;;7.55;46.46;103051.41;5089538;28;20039;-72
2022/03/25 03:08:46;;;;;;;133.60;68.10;;;;;;;8.25;44.52;103044.16;5090068;28;20032;-74
2022/03/25 03:11:12;;;;;;;121.22;63.80;;;;;;;8.41;43.94;103051.19;5090439;28;20485;-74
2022/03/25 03:13:38;;;;;;;119.78;67.13;;;;;;;8.71;43.19;103047.25;5087786;28;20089;-74
2022/03/25 03:16:04;;;;;;;121.00;63.10;;;;;;;8.63;43.73;103042.00;5089428;28;20032;-74
2022/03/25 03:18:30;;;;;;;114.63;64.95;;;;;;;8.54;43.56;103044.03;5104096;28;20051;-74
2022/03/25 03:20:55;;;;;;;126.40;63.45;;;;;;;8.61;42.93;103044.91;5089001;28;20036;-73
2022/03/25 03:23:21;;;;;;;126.38;66.03;;;;;;;8.63;43.07;103045.53;5089615;28;20035;-74
2022/03/25 03:25:46;;;;;;;124.18;64.30;;;;;;;8.43;43.70;103043.72;5089350;28;20028;-74
2022/03/25 03:28:11;;;;;;;127.50;61.97;;;;;;;8.70;43.09;103041.00;5088993;28;20112;-73
2022/03/25 03:30:37;;;;;;;119.32;63.78;;;;;;;7.93;45.01;103051.00;5089367;28;20047;-72
2022/03/25 03:33:04;;;;;;;126.32;67.10;;;;;;;7.55;46.62;103046.00;5090529;28;20035;-74
2022/03/25 03:35:32;;;;;;;112.60;64.13;;;;;;;8.15;44.79;103048.25;5093347;28;20036;-72
2022/03/25 03:37:57;;;;;;;124.72;66.43;;;;;;;7.49;45.61;103049.44;5093243;28;20086;-73
2022/03/25 03:40:23;;;;;;;124.78;64.35;;;;;;;7.58;46.72;103051.84;5092896;28;20028;-74
2022/03/25 03:42:48;;;;;;;129.52;65.70;;;;;;;8.17;44.92;103049.72;5092468;28;20032;-74
2022/03/25 03:45:14;;;;;;;132.88;68.60;;;;;;;8.33;44.26;103044.06;5092768;28;20119;-73
2022/03/25 03:47:40;;;;;;;121.30;64.30;;;;;;;8.15;44.11;103049.09;5088370;28;20396;-73
2022/03/25 03:50:09;;;;;;;124.05;66.15;;;;;;;8.42;43.92;103042.91;5093338;28;20035;-72
2022/03/25 03:52:35;;;;;;;123.60;63.83;;;;;;;8.49;43.46;103049.19;5092647;28;20042;-74
2022/03/25 03:55:03;;;;;;;132.52;65.28;;;;;;;8.53;43.47;103045.06;5092863;28;20119;-74
2022/03/25 03:57:29;;;;;;;120.25;63.58;;;;;;;8.11;44.33;103045.94;5092250;28;20123;-73
2022/03/25 03:59:55;;;;;;;123.72;61.45;;;;;;;8.14;44.17;103042.00;5092732;28;20040;-73
2022/03/25 04:02:20;;;;;;;128.77;66.40;;;;;;;8.04;44.20;103041.50;5093397;28;20054;-74
2022/03/25 04:04:46;;;;;;;122.05;62.17;;;;;;;8.24;43.95;103045.22;5092776;28;20070;-75
2022/03/25 04:07:11;;;;;;;127.35;64.15;;;;;;;8.08;43.40;103037.38;5093179;28;20036;-72
2022/03/25 04:09:37;;;;;;;129.05;64.97;;;;;;;8.32;43.08;103039.72;5092394;28;20083;-74
2022/03/25 04:12:03;;;;;;;119.78;61.85;;;;;;;8.19;42.64;103033.31;5092494;28;20031;-74
2022/03/25 04:14:28;;;;;;;118.32;61.65;;;;;;;7.71;44.40;103040.34;5092570;28;20169;-74
2022/03/25 04:16:54;;;;;;;117.00;63.22;;;;;;;8.00;44.09;103042.91;5092292;28;20564;-73
2022/03/25 04:19:19;;;;;;;122.57;64.38;;;;;;;8.05;43.53;103043.19;5092504;28;20058;-73
2022/03/25 04:21:44;;;;;;;125.00;61.25;;;;;;;8.10;43.81;103040.72;5091835;28;20491;-73
2022/03/25 04:24:10;;;;;;;112.63;58.75;;;;;;;8.00;43.27;103037.50;5091938;28;20032;-74
2022/03/25 04:26:35;;;;;;;105.05;55.63;;;;;;;7.91;43.43;103035.97;5092385;28;20028;-73
2022/03/25 04:29:00;;;;;;;82.45;48.15;;;;;;;7.79;43.26;103034.81;5084972;28;20653;-72
2022/03/25 04:31:26;;;;;;;63.80;38.60;;;;;;;7.88;41.80;103048.00;5092023;28;20092;-73
2022/03/25 04:33:51;;;;;;;58.20;35.00;;;;;;;7.11;42.95;103051.47;5085845;28;20043;-74
2022/03/25 04:36:17;;;;;;;42.22;25.58;;;;;;;6.77;43.16;103046.66;5091811;28;20085;-73
2022/03/25 04:38:42;;;;;;;34.20;22.95;;;;;;;6.81;42.62;103039.84;5091951;28;20244;-73
2022/03/25 04:41:10;;;;;;;36.83;26.23;;;;;;;6.52;43.33;103056.00;5092681;28;20086;-74
2022/03/25 04:43:39;;;;;;;36.13;25.27;;;;;;;6.13;44.30;103056.19;5085515;28;20127;-74
2022/03/25 04:46:05;;;;;;;38.53;24.63;;;;;;;6.18;43.98;103055.66;5086123;28;20040;-73
2022/03/25 04:48:31;;;;;;;39.58;25.60;;;;;;;5.47;45.41;103067.59;5085427;28;20040;-73
2022/03/25 04:50:56;;;;;;;41.50;25.83;;;;;;;5.57;45.26;103072.75;5090736;28;20477;-73
2022/03/25 04:53:22;;;;;;;38.67;25.13;;;;;;;5.99;44.06;103067.75;5080492;28;20043;-74
2022/03/25 04:55:47;;;;;;;53.67;25.90;;;;;;;5.52;45.28;103075.94;5085468;28;20552;-72
2022/03/25 04:58:14;;;;;;;41.95;24.70;;;;;;;6.19;43.36;103066.25;5088147;28;20036;-73
2022/03/25 05:00:40;;;;;;;36.80;25.27;;;;;;;5.51;44.36;103073.44;5087036;28;20036;-72
2022/03/25 05:03:05;;;;;;;35.55;23.30;;;;;;;5.28;45.08;103065.31;5085191;28;20043;-72
2022/03/25 05:05:32;;;;;;;35.38;23.38;;;;;;;5.25;45.26;103070.19;5087758;28;20055;-74
2022/03/25 05:07:57;;;;;;;35.70;24.05;;;;;;;5.36;44.57;103081.41;5087938;28;20028;-75
2022/03/25 05:10:23;;;;;;;42.80;26.60;;;;;;;5.31;44.83;103085.66;5089790;28;20922;-73
2022/03/25 05:12:48;;;;;;;36.25;25.10;;;;;;;5.24;45.01;103090.88;5086748;28;20058;-74
2022/03/25 05:15:14;;;;;;;39.60;24.27;;;;;;;4.93;45.79;103087.31;5087939;28;20052;-72
2022/03/25 05:17:44;;;;;;;42.30;27.27;;;;;;;5.02;46.32;103088.13;5090802;28;20571;-72
2022/03/25 05:20:10;;;;;;;51.05;29.38;;;;;;;5.40;44.64;103088.13;5068518;28;20048;-73
2022/03/25 05:22:35;;;;;;;43.92;27.15;;;;;;;5.61;44.31;103087.53;5081527;28;20118;-74
2022/03/25 05:25:06;;;;;;;43.35;27.60;;;;;;;4.93;45.67;103084.63;5079743;28;20197;-73
2022/03/25 05:27:42;;;;;;;45.65;28.80;;;;;;;5.14;45.28;103089.44;5084767;28;20078;-73
2022/03/25 05:30:08;;;;;;;42.05;26.23;;;;;;;5.26;44.72;103077.28;5083438;28;20527;-73
2022/03/25 05:32:33;;;;;;;46.28;28.38;;;;;;;5.73;43.88;103082.59;5066403;28;20040;-75
2022/03/25 05:34:58;;;;;;;42.42;27.17;;;;;;;5.64;43.70;103079.09;5090677;28;20043;-73
2022/03/25 05:37:24;;;;;;;44.58;26.58;;;;;;;4.94;46.18;103083.63;5089679;28;20123;-74
2022/03/25 05:39:50;;;;;;;44.13;26.98;;;;;;;5.96;43.53;103078.91;5081141;28;20083;-73
2022/03/25 05:42:15;;;;;;;44.28;27.33;;;;;;;5.99;43.50;103080.41;5087747;28;20098;-74
2022/03/25 05:44:41;;;;;;;45.22;27.92;;;;;;;5.46;44.77;103089.28;5090713;28;20043;-73
2022/03/25 05:47:06;;;;;;;36.83;24.13;;;;;;;5.80;43.92;103092.47;5064362;28;20028;-75
2022/03/25 05:49:31;;;;;;;43.58;24.75;;;;;;;4.54;46.28;103103.34;5075336;28;20070;-73
2022/03/25 05:51:57;;;;;;;70.72;27.30;;;;;;;4.99;45.96;103102.75;5089146;28;20541;-72
2022/03/25 05:54:22;;;;;;;66.93;21.95;;;;;;;5.46;45.25;103100.03;5090017;28;20089;-73
2022/03/25 05:56:47;;;;;;;63.05;24.02;;;;;;;5.64;44.00;103102.47;5078789;28;20043;-73
2022/03/25 05:59:13;;;;;;;57.33;23.08;;;;;;;5.64;44.49;103105.16;5090962;28;20039;-74
2022/03/25 06:01:38;;;;;;;62.75;22.90;;;;;;;5.47;45.00;103104.44;5084968;28;20047;-74
2022/03/25 06:04:04;;;;;;;45.72;24.60;;;;;;;4.82;46.67;103111.03;5090404;28;20093;-73
2022/03/25 06:06:29;;;;;;;37.13;24.30;;;;;;;5.28;45.81;103113.75;5075936;28;20259;-73
2022/03/25 06:08:55;;;;;;;44.65;27.73;;;;;;;5.45;44.74;103118.06;5079865;28;21801;-74
2022/03/25 06:11:22;;;;;;;48.10;27.17;;;;;;;5.65;45.04;103115.78;5079357;28;20138;-73
2022/03/25 06:13:47;;;;;;;37.63;25.25;;;;;;;5.56;45.56;103118.69;5082239;28;20039;-73
2022/03/25 06:16:13;;;;;;;43.22;26.77;;;;;;;5.75;44.53;103119.13;5076439;28;20400;-73
2022/03/25 06:18:38;;;;;;;56.53;32.28;;;;;;;5.64;45.78;103124.00;5102226;28;20528;-72
2022/03/25 06:21:04;;;;;;;49.30;30.33;;;;;;;6.33;43.96;103119.38;5101845;28;20036;-74
2022/03/25 06:23:29;;;;;;;52.47;31.02;;;;;;;6.17;44.60;103121.34;5084567;28;20051;-74
2022/03/25 06:25:55;;;;;;;64.25;35.13;;;;;;;5.48;47.12;103120.41;5081333;28;20028;-75
2022/03/25 06:28:22;;;;;;;56.60;34.67;;;;;;;5.84;45.99;103130.69;5079460;28;20116;-73
2022/03/25 06:30:48;;;;;;;49.42;29.80;;;;;;;6.15;44.54;103132.31;5083483;28;20032;-74
2022/03/25 06:33:14;;;;;;;46.20;29.92;;;;;;;6.32;44.51;103138.44;5084419;28;20036;-73
2022/03/25 06:35:39;;;;;;;48.25;29.10;;;;;;;6.43;44.59;103135.31;5080443;28;20023;-72
2022/03/25 06:38:07;;;;;;;53.50;31.73;;;;;;;6.20;45.02;103137.19;5079910;28;20039;-70
2022/03/25 06:40:32;;;;;;;57.85;33.80;;;;;;;6.59;44.31;103139.72;5084700;28;20511;-72
2022/03/25 06:42:58;;;;;;;56.22;33.25;;;;;;;6.80;43.92;103138.00;5086197;28;20131;-73
2022/03/25 06:45:25;;;;;;;71.05;38.35;;;;;;;6.56;45.76;103145.50;5083605;28;20034;-74
2022/03/25 06:47:50;;;;;;;87.32;42.80;;;;;;;6.74;45.73;103136.03;5087862;28;20031;-73
2022/03/25 06:50:18;;;;;;;80.70;42.42;;;;;;;6.67;46.46;103134.25;5071204;28;20028;-75
2022/03/25 06:52:45;;;;;;;86.25;44.30;;;;;;;7.20;44.64;103128.66;5082008;28;20040;-72
2022/03/25 06:55:11;;;;;;;108.43;51.15;;;;;;;7.58;43.63;103132.88;5079584;28;20036;-74
2022/03/25 06:57:38;;;;;;;108.47;52.75;;;;;;;7.51;44.85;103145.50;5075266;28;20524;-72
2022/03/25 07:00:05;;;;;;;114.75;52.35;;;;;;;6.86;46.51;103137.25;5072768;28;20511;-73
2022/03/25 07:02:30;;;;;;;117.60;55.90;;;;;;;6.67;47.02;103150.44;5072865;28;20084;-73
2022/03/25 07:04:56;;;;;;;108.15;53.80;;;;;;;7.40;45.44;103145.13;5086002;28;20511;-73
2022/03/25 07:07:26;;;;;;;120.28;57.55;;;;;;;6.84;46.62;103147.41;5075078;28;20051;-74
2022/03/25 07:09:55;;;;;;;109.03;54.77;;;;;;;6.60;47.26;103144.91;5083074;28;20107;-75
2022/03/25 07:12:21;;;;;;;111.75;55.78;;;;;;;7.25;45.61;103147.00;5077868;28;20047;-72
2022/03/25 07:14:46;;;;;;;103.20;53.95;;;;;;;8.32;43.72;103156.00;5076565;28;20037;-73
2022/03/25 07:17:12;;;;;;;104.45;53.58;;;;;;;8.09;44.33;103161.56;5080533;28;20028;-72
2022/03/25 07:19:37;;;;;;;92.85;50.92;;;;;;;7.19;46.00;103160.22;5079339;28;20044;-73
2022/03/25 07:22:03;;;;;;;93.22;50.67;;;;;;;7.33;45.18;103163.09;5086692;28;20067;-72
2022/03/25 07:24:29;;;;;;;94.82;49.13;;;;;;;6.81;47.28;103173.91;5090278;28;20043;-73
2022/03/25 07:26:54;;;;;;;84.50;49.28;;;;;;;7.83;45.16;103176.66;5089173;28;20024;-73
2022/03/25 07:29:20;;;;;;;85.63;47.30;;;;;;;7.56;45.13;103177.34;5094691;28;20418;-73
2022/03/25 07:31:45;;;;;;;88.53;47.30;;;;;;;8.03;44.23;103181.25;5094225;28;20127;-73
2022/03/25 07:34:11;;;;;;;83.45;46.70;;;;;;;7.89;44.47;103189.41;5094377;28;20501;-73
2022/03/25 07:36:36;;;;;;;84.55;45.00;;;;;;;8.43;43.17;103192.50;5094313;28;20067;-74
2022/03/25 07:39:03;;;;;;;88.43;47.80;;;;;;;8.41;43.34;103186.44;5094177;28;20119;-72
2022/03/25 07:41:29;;;;;;;76.32;41.63;;;;;;;8.04;44.11;103192.91;5096729;28;20397;-72
2022/03/25 07:43:55;;;;;;;74.32;41.95;;;;;;;8.52;42.25;103200.34;5114189;28;20084;-72
2022/03/25 07:46:20;;;;;;;77.38;42.65;;;;;;;8.43;42.36;103197.91;5110278;28;20035;-72
2022/03/25 07:48:46;;;;;;;78.95;42.42;;;;;;;9.10;40.75;103201.84;5094323;28;20040;-72
2022/03/25 07:51:11;;;;;;;73.03;42.30;;;;;;;9.66;39.35;103205.34;5093856;28;20046;-73
2022/03/25 07:53:37;;;;;;;69.05;40.60;;;;;;;9.85;38.96;103193.75;5093733;28;20043;-72
2022/03/25 07:56:03;;;;;;;71.72;41.53;;;;;;;9.75;39.22;103190.56;5094262;28;20024;-74
2022/03/25 07:58:28;;;;;;;66.57;37.67;;;;;;;9.71;39.52;103206.41;5093774;28;20174;-72
2022/03/25 08:00:54;;;;;;;66.55;38.13;;;;;;;9.21;40.03;103206.72;5093666;28;20047;-74
2022/03/25 08:03:21;;;;;;;72.38;37.95;;;;;;;9.92;38.77;103210.88;5093787;28;20031;-73
2022/03/25 08:05:50;;;;;;;66.97;37.80;;;;;;;9.30;39.85;103210.09;5093944;28;20032;-73
2022/03/25 08:08:18;;;;;;;62.00;36.05;;;;;;;9.76;38.98;103213.94;5083961;28;20040;-73
2022/03/25 08:10:44;;;;;;;63.22;37.08;;;;;;;9.32;39.97;103211.59;5093273;28;20036;-73
2022/03/25 08:13:10;;;;;;;62.60;37.88;;;;;;;10.53;37.50;103208.97;5093473;28;20085;-72
2022/03/25 08:15:36;;;;;;;65.75;37.75;;;;;;;10.19;38.00;103207.22;5093482;28;20047;-73
2022/03/25 08:18:05;;;;;;;60.58;36.95;;;;;;;10.49;37.40;103210.47;5093367;28;20048;-72
2022/03/25 08:20:37;;;;;;;64.10;37.97;;;;;;;10.21;38.29;103212.44;5093939;28;20082;-72
2022/03/25 08:23:04;;;;;;;60.65;36.78;;;;;;;10.79;36.82;103210.88;5093543;28;20044;-74
2022/03/25 08:28:15;;;;;;;66.05;37.22;;;;;;;10.26;38.11;103213.50;5072711;28;20056;-73
2022/03/25 08:30:42;;;;;;;64.88;36.67;;;;;;;10.22;38.35;103227.66;5072902;28;20039;-71
2022/03/25 08:33:08;;;;;;;58.75;36.70;;;;;;;11.31;36.06;103219.84;5073103;28;20032;-73
2022/03/25 08:35:35;;;;;;;67.05;36.75;;;;;;;11.24;36.01;103229.03;5073284;28;20050;-72
2022/03/25 08:38:00;;;;;;;63.97;37.45;;;;;;;11.33;36.23;103220.47;5082278;28;20489;-73
2022/03/25 08:40:29;;;;;;;58.33;35.92;;;;;;;11.22;36.25;103225.69;5093423;28;20039;-72
2022/03/25 08:42:55;;;;;;;57.50;34.88;;;;;;;11.94;34.80;103230.97;5093711;28;20040;-73
2022/03/25 08:45:22;;;;;;;56.53;35.28;;;;;;;11.91;35.03;103234.09;5093642;28;20080;-72
2022/03/25 08:47:51;;;;;;;69.10;37.70;;;;;;;10.63;37.29;103234.69;5093286;28;20031;-72
2022/03/25 08:50:18;;;;;;;56.10;33.70;;;;;;;10.29;38.39;103237.53;5093942;28;20546;-72
2022/03/25 08:52:45;;;;;;;57.65;33.78;;;;;;;11.92;34.86;103242.09;5092793;28;20047;-71
2022/03/25 08:55:12;;;;;;;60.45;37.15;;;;;;;11.41;36.01;103238.44;5092501;28;20405;-73
2022/03/25 08:57:39;;;;;;;61.00;34.90;;;;;;;11.42;36.26;103237.38;5092757;28;20164;-72
2022/03/25 09:00:10;;;;;;;56.60;34.85;;;;;;;10.85;37.40;103239.91;5092694;28;20562;-72
2022/03/25 09:02:35;;;;;;;58.72;35.03;;;;;;;12.05;35.32;103231.13;5093297;28;20074;-72
2022/03/25 09:05:01;;;;;;;56.80;34.35;;;;;;;11.71;35.69;103233.38;5092779;28;20396;-71
2022/03/25 09:07:26;;;;;;;59.22;34.28;;;;;;;11.76;35.80;103239.84;5088394;28;20052;-71
2022/03/25 09:09:52;;;;;;;53.28;34.08;;;;;;;11.90;35.43;103251.50;5082248;28;20394;-72
2022/03/25 09:12:17;;;;;;;60.28;34.67;;;;;;;10.86;38.05;103247.88;5092209;28;20063;-72
2022/03/25 09:14:43;;;;;;;55.20;33.40;;;;;;;11.14;36.94;103243.03;5092453;28;20115;-71
2022/03/25 09:17:09;;;;;;;54.63;33.63;;;;;;;11.02;37.89;103249.34;5092887;28;20384;-71
2022/03/25 09:19:34;;;;;;;62.08;34.70;;;;;;;10.95;38.30;103248.50;5095025;28;20092;-75
2022/03/25 09:21:59;;;;;;;57.00;35.83;;;;;;;12.09;36.11;103248.69;5094987;28;20127;-72
2022/03/25 09:24:26;;;;;;;53.35;31.42;;;;;;;12.83;34.13;103242.63;5094750;28;20039;-72
2022/03/25 09:26:51;;;;;;;62.47;34.13;;;;;;;13.02;33.77;103244.34;5094979;28;20028;-73
2022/03/25 09:29:16;;;;;;;56.50;34.38;;;;;;;13.83;33.00;103240.38;5091780;28;20192;-72
2022/03/25 09:31:44;;;;;;;62.65;34.88;;;;;;;12.50;35.00;103233.81;5091056;28;20044;-73
2022/03/25 09:36:55;;;;;;;56.65;34.25;;;;;;;14.19;31.66;103231.31;5112223;28;20046;-73
2022/03/25 09:39:21;;;;;;;57.67;32.60;;;;;;;13.34;33.61;103228.78;5103715;28;20028;-72
2022/03/25 09:41:46;;;;;;;59.13;33.40;;;;;;;13.94;32.05;103238.78;5091350;28;20036;-72
2022/03/25 09:44:16;;;;;;;54.35;34.55;;;;;;;14.53;31.37;103227.06;5092205;28;20032;-72
2022/03/25 09:46:42;;;;;;;52.97;33.55;;;;;;;13.86;32.28;103244.53;5091768;28;20028;-73
2022/03/25 09:49:09;;;;;;;62.63;34.03;;;;;;;14.75;31.12;103228.19;5091638;28;20082;-73
2022/03/25 09:51:35;;;;;;;63.60;32.95;;;;;;;14.16;31.75;103234.50;5091260;28;20051;-73
2022/03/25 09:54:01;;;;;;;57.38;33.92;;;;;;;14.62;30.69;103231.09;5091357;28;20116;-73
2022/03/25 09:56:27;;;;;;;61.00;35.30;;;;;;;12.70;33.20;103229.09;5091842;28;20036;-73
2022/03/25 09:58:53;;;;;;;51.42;31.67;;;;;;;14.06;31.87;103237.78;5091008;28;20469;-73
2022/03/25 10:01:18;;;;;;;60.42;33.83;;;;;;;14.84;30.58;103227.59;5091183;28;20047;-73
2022/03/25 10:03:43;;;;;;;61.50;33.65;;;;;;;13.44;33.28;103240.81;5091046;28;20507;-72
2022/03/25 10:06:11;;;;;;;58.90;34.40;;;;;;;14.85;30.64;103231.19;5091051;28;20036;-72
2022/03/25 10:08:38;;;;;;;56.28;34.08;;;;;;;15.17;30.15;103227.06;5076929;28;20024;-72
2022/03/25 10:11:27;;;;;;;59.60;33.08;;;;;;;15.73;29.24;103223.69;5091299;28;20032;-72
2022/03/25 10:14:15;;;;;;;58.33;34.58;;;;;;;16.14;28.58;103228.09;5091360;28;20036;-73
2022/03/25 10:16:49;;;;;;;52.53;33.50;;;;;;;15.82;29.39;103222.25;5091011;28;20063;-71
2022/03/25 10:19:19;;;;;;;61.95;35.80;;;;;;;14.57;31.69;103228.25;5090842;28;20028;-73
2022/03/25 10:21:56;;;;;;;60.60;34.40;;;;;;;14.48;31.74;103221.47;5090947;28;20040;-73
2022/03/25 10:24:43;;;;;;;51.38;32.67;;;;;;;16.07;29.14;103222.78;5091016;28;20057;-73
2022/03/25 10:27:10;;;;;;;54.65;32.25;;;;;;;16.72;28.73;103225.94;5090294;28;20089;-71
2022/03/25 10:29:37;;;;;;;60.08;35.17;;;;;;;16.95;27.83;103225.75;5090150;28;20490;-74
2022/03/25 10:32:14;;;;;;;57.63;35.33;;;;;;;16.75;27.79;103222.69;5095685;28;20024;-73
2022/03/25 10:34:42;;;;;;;54.53;32.50;;;;;;;16.45;28.50;103220.22;5094218;28;20127;-73
2022/03/25 10:37:10;;;;;;;56.88;34.40;;;;;;;15.66;29.57;103223.00;5086790;28;20043;-72
2022/03/25 10:39:35;;;;;;;54.58;32.97;;;;;;;16.55;27.97;103225.03;5090441;28;20040;-71
2022/03/25 10:42:04;;;;;;;55.08;33.97;;;;;;;16.94;27.29;103217.78;5090239;28;20097;-71
2022/03/25 10:44:42;;;;;;;57.10;33.63;;;;;;;16.32;28.26;103219.69;5090845;28;20124;-73
2022/03/25 10:47:28;;;;;;;58.60;32.95;;;;;;;16.89;27.95;103218.53;5090938;28;20418;-73
2022/03/25 10:50:09;;;;;;;58.63;33.47;;;;;;;17.12;27.90;103220.25;5090578;28;20412;-72
2022/03/25 10:52:35;;;;;;;61.17;34.28;;;;;;;16.92;27.32;103215.28;5090303;28;20032;-73
2022/03/25 10:55:23;;;;;;;53.65;34.05;;;;;;;16.62;28.36;103215.59;5090339;28;20513;-72
2022/03/25 10:57:58;;;;;;;57.85;34.53;;;;;;;16.49;27.96;103209.56;5090083;28;20050;-71
2022/03/25 11:00:24;;;;;;;56.88;33.78;;;;;;;16.69;28.04;103209.97;5089068;28;20190;-71
2022/03/25 11:02:50;;;;;;;55.30;33.08;;;;;;;16.72;27.37;103214.97;5093032;28;20121;-74
2022/03/25 11:05:16;;;;;;;58.13;32.97;;;;;;;15.80;29.06;103210.66;5093504;28;20028;-73
2022/03/25 11:07:44;;;;;;;56.30;32.90;;;;;;;16.73;27.65;103208.38;5091675;28;20527;-74
2022/03/25 11:10:17;;;;;;;54.58;33.38;;;;;;;17.36;27.20;103210.78;5089311;28;20039;-72
2022/03/25 11:12:51;;;;;;;55.35;33.50;;;;;;;18.18;26.05;103215.13;5091752;28;20062;-73
2022/03/25 11:15:19;;;;;;;56.80;32.17;;;;;;;17.88;25.81;103213.94;5076595;28;20029;-72